TimeMST,TemperatureF,Dew PointF,Humidity,Sea Level PressureIn,VisibilityMPH,Wind Direction,Wind SpeedMPH,Gust SpeedMPH,PrecipitationIn,Events,Conditions,WindDirDegrees,DateUTC
12:53 AM,28.9,23.0,78,30.04,10.0,Calm,Calm,-,N/A,,Clear,0,2012-11-08 07:53:00
1:53 AM,27.0,25.0,92,30.04,10.0,Calm,Calm,-,N/A,,Clear,0,2012-11-08 08:53:00
2:53 AM,26.1,21.9,84,30.01,10.0,Calm,Calm,-,N/A,,Clear,0,2012-11-08 09:53:00
3:53 AM,27.0,23.0,85,29.99,10.0,NNW,3.5,-,N/A,,Clear,330,2012-11-08 10:53:00
4:53 AM,28.0,25.0,88,29.97,10.0,WNW,4.6,-,N/A,,Overcast,290,2012-11-08 11:53:00
5:53 AM,28.0,27.0,96,29.95,10.0,Calm,Calm,-,N/A,,Overcast,0,2012-11-08 12:53:00
6:53 AM,28.0,26.1,92,29.93,10.0,Calm,Calm,-,N/A,,Overcast,0,2012-11-08 13:53:00
7:53 AM,28.9,27.0,92,29.92,10.0,Calm,Calm,-,N/A,,Overcast,0,2012-11-08 14:53:00
8:53 AM,37.0,25.0,62,29.88,10.0,SE,17.3,-,N/A,,Overcast,140,2012-11-08 15:53:00
9:53 AM,37.9,24.1,57,29.86,10.0,SE,16.1,21.9,N/A,,Overcast,130,2012-11-08 16:53:00
10:29 AM,35.6,28.4,75,29.81,4.0,East,11.5,-,0.00,Snow,Light Snow,80,2012-11-08 17:29:00
10:53 AM,36.0,28.0,73,29.86,4.0,East,9.2,-,0.00,Snow,Light Snow,100,2012-11-08 17:53:00
11:01 AM,33.8,28.4,81,29.79,1.8,SE,13.8,-,0.00,Snow,Light Snow,130,2012-11-08 18:01:00
11:06 AM,33.8,30.2,87,29.78,1.0,SE,11.5,-,0.00,Snow,Light Snow,130,2012-11-08 18:06:00
11:14 AM,33.8,30.2,87,29.77,0.8,SE,9.2,-,0.00,Snow,Light Snow,140,2012-11-08 18:14:00
11:33 AM,32.0,30.2,93,29.77,1.2,South,9.2,-,0.01,Snow,Light Snow,170,2012-11-08 18:33:00
11:36 AM,32.0,30.2,93,29.77,1.5,South,9.2,-,0.01,Snow,Light Snow,170,2012-11-08 18:36:00
11:42 AM,33.8,30.2,87,29.77,3.0,SSE,9.2,-,0.01,Snow,Light Snow,160,2012-11-08 18:42:00
11:53 AM,34.0,30.0,85,29.84,5.0,SE,9.2,-,0.01,Snow,Light Snow,140,2012-11-08 18:53:00
12:04 PM,33.8,30.2,87,29.77,2.0,SE,11.5,-,0.01,Snow,Light Snow,140,2012-11-08 19:04:00
12:09 PM,33.8,28.4,81,29.77,1.5,SE,11.5,-,0.01,Snow,Light Snow,140,2012-11-08 19:09:00
12:27 PM,33.8,28.4,81,29.78,1.0,ESE,10.4,19.6,0.02,Snow,Light Snow,120,2012-11-08 19:27:00
12:39 PM,35.6,28.4,75,29.76,1.5,East,13.8,-,0.02,Snow,Light Snow,100,2012-11-08 19:39:00
12:53 PM,34.0,28.9,82,29.84,1.8,ESE,15.0,-,0.02,Snow,Light Snow,120,2012-11-08 19:53:00
1:02 PM,33.8,30.2,87,29.75,1.2,ESE,15.0,-,0.01,Snow,Light Snow,120,2012-11-08 20:02:00
1:21 PM,35.6,30.2,81,29.74,3.0,SE,16.1,-,0.01,,Overcast,130,2012-11-08 20:21:00
1:30 PM,35.6,30.2,81,29.73,10.0,ESE,16.1,-,0.01,,Overcast,120,2012-11-08 20:30:00
1:53 PM,36.0,28.9,76,29.79,10.0,ESE,12.7,-,0.01,,Overcast,110,2012-11-08 20:53:00
2:53 PM,37.0,25.0,62,29.79,10.0,ESE,15.0,20.7,N/A,,Overcast,110,2012-11-08 21:53:00
3:53 PM,34.0,26.1,73,29.81,10.0,SE,18.4,23.0,N/A,,Overcast,130,2012-11-08 22:53:00
4:53 PM,35.1,24.1,64,29.81,10.0,ESE,16.1,23.0,N/A,,Overcast,120,2012-11-08 23:53:00
5:53 PM,34.0,24.1,67,29.79,10.0,SE,11.5,-,N/A,,Overcast,130,2012-11-09 00:53:00
6:53 PM,34.0,24.1,67,29.81,10.0,SE,12.7,-,N/A,,Overcast,130,2012-11-09 01:53:00
7:53 PM,34.0,24.1,67,29.78,10.0,SE,18.4,27.6,N/A,,Overcast,130,2012-11-09 02:53:00
8:53 PM,34.0,23.0,64,29.76,10.0,SE,13.8,-,0.00,,Overcast,130,2012-11-09 03:53:00
9:53 PM,34.0,23.0,64,29.78,10.0,SE,15.0,-,N/A,,Overcast,130,2012-11-09 04:53:00
10:13 PM,32.0,24.8,75,29.73,4.0,ESE,16.1,28.8,0.00,Snow,Light Snow,120,2012-11-09 05:13:00
10:16 PM,32.0,26.6,80,29.73,2.0,ESE,15.0,28.8,0.00,Snow,Light Snow,120,2012-11-09 05:16:00
10:18 PM,32.0,26.6,80,29.73,1.5,ESE,16.1,25.3,0.00,Snow,Light Snow,120,2012-11-09 05:18:00
10:20 PM,30.2,26.6,86,29.72,1.0,ESE,13.8,-,0.00,Snow,Light Snow,120,2012-11-09 05:20:00
10:29 PM,30.2,28.4,93,29.72,0.5,ESE,10.4,-,0.01,Fog-Snow,Snow,120,2012-11-09 05:29:00
10:36 PM,30.2,28.4,93,29.72,0.5,ESE,6.9,-,0.02,Fog-Snow,Snow,120,2012-11-09 05:36:00
10:53 PM,30.0,28.9,96,29.79,0.5,ESE,6.9,-,0.06,Fog-Snow,Snow,110,2012-11-09 05:53:00
11:00 PM,30.2,28.4,93,29.72,0.8,East,8.1,-,0.00,Snow,Light Snow,100,2012-11-09 06:00:00
11:02 PM,30.2,28.4,93,29.72,1.2,ESE,6.9,-,0.00,Snow,Light Snow,110,2012-11-09 06:02:00
11:05 PM,30.2,28.4,93,29.71,2.0,ESE,5.8,-,0.01,Snow,Light Snow,110,2012-11-09 06:05:00
11:15 PM,30.2,28.4,93,29.71,4.0,ESE,6.9,-,0.01,Snow,Light Snow,120,2012-11-09 06:15:00
11:53 PM,30.0,28.0,92,29.80,3.0,ESE,6.9,-,0.01,Snow,Light Snow,120,2012-11-09 06:53:00